SAS65L ENGM-ENHD
Flight info
| Callsign | SAS65L |
|---|---|
| Flight time | 0h 41m |
| Altitude | 34000 |
| Route | ATLAP DCT IPMOD DCT ULVOS |
| Aircraft | E195/M-SDE3GILORVW/S |
Departure
| Time | 2026-05-05 11:39 |
|---|---|
| Airport | Oslo-Gardermoen International Airport (ENGM) |
Arrival
| Time | 2026-05-05 12:20 |
|---|---|
| Airport | Haugesund Airport, Karmøy (ENHD) |
| Time | Latitude | Longitude | Altitude | Speed | Heading |
|---|---|---|---|---|---|
| 2026-05-05 11:16 | 60.19569 | 11.09430 | 686 ft | 0 kts | 196° |
| 2026-05-05 11:28 | 60.19575 | 11.09433 | 686 ft | 2 kts | 193° |
| 2026-05-05 11:29 | 60.19590 | 11.09441 | 686 ft | 2 kts | 196° |
| 2026-05-05 11:29 | 60.19604 | 11.09449 | 686 ft | 2 kts | 196° |
| 2026-05-05 11:29 | 60.19616 | 11.09456 | 686 ft | 0 kts | 196° |
| 2026-05-05 11:29 | 60.19617 | 11.09456 | 686 ft | 0 kts | 196° |
| 2026-05-05 11:31 | 60.19616 | 11.09456 | 686 ft | 0 kts | 196° |
| 2026-05-05 11:32 | 60.19614 | 11.09450 | 686 ft | 0 kts | 254° |
| 2026-05-05 11:32 | 60.19623 | 11.09441 | 686 ft | 3 kts | 7° |
| 2026-05-05 11:32 | 60.19659 | 11.09456 | 686 ft | 5 kts | 356° |
| 2026-05-05 11:32 | 60.19683 | 11.09393 | 686 ft | 6 kts | 287° |
| 2026-05-05 11:33 | 60.19697 | 11.09298 | 686 ft | 7 kts | 286° |
| 2026-05-05 11:33 | 60.19717 | 11.09155 | 686 ft | 13 kts | 286° |
| 2026-05-05 11:33 | 60.19748 | 11.08932 | 686 ft | 18 kts | 286° |
| 2026-05-05 11:33 | 60.19775 | 11.08735 | 686 ft | 10 kts | 273° |
| 2026-05-05 11:34 | 60.19725 | 11.08643 | 686 ft | 11 kts | 196° |
| 2026-05-05 11:34 | 60.19641 | 11.08595 | 686 ft | 15 kts | 196° |
| 2026-05-05 11:34 | 60.19524 | 11.08526 | 686 ft | 19 kts | 195° |
| 2026-05-05 11:34 | 60.19380 | 11.08443 | 686 ft | 22 kts | 196° |
| 2026-05-05 11:35 | 60.19230 | 11.08357 | 686 ft | 23 kts | 196° |
| 2026-05-05 11:35 | 60.19075 | 11.08267 | 687 ft | 23 kts | 196° |
| 2026-05-05 11:35 | 60.18916 | 11.08175 | 687 ft | 23 kts | 196° |
| 2026-05-05 11:35 | 60.18823 | 11.08122 | 687 ft | 10 kts | 196° |
| 2026-05-05 11:36 | 60.18747 | 11.08079 | 686 ft | 11 kts | 195° |
| 2026-05-05 11:36 | 60.18665 | 11.08031 | 687 ft | 12 kts | 195° |
| 2026-05-05 11:36 | 60.18576 | 11.07980 | 687 ft | 12 kts | 196° |
| 2026-05-05 11:36 | 60.18540 | 11.07869 | 687 ft | 10 kts | 280° |
| 2026-05-05 11:37 | 60.18560 | 11.07720 | 687 ft | 11 kts | 285° |
| 2026-05-05 11:37 | 60.18586 | 11.07561 | 687 ft | 12 kts | 297° |
| 2026-05-05 11:37 | 60.18650 | 11.07472 | 687 ft | 9 kts | 355° |
| 2026-05-05 11:37 | 60.18683 | 11.07480 | 687 ft | 0 kts | 15° |
| 2026-05-05 11:38 | 60.18708 | 11.07494 | 687 ft | 23 kts | 15° |
| 2026-05-05 11:38 | 60.19161 | 11.07752 | 687 ft | 108 kts | 17° |
| 2026-05-05 11:38 | 60.20106 | 11.08304 | 780 ft | 165 kts | 15° |
| 2026-05-05 11:39 | 60.21184 | 11.08948 | 1599 ft | 169 kts | 13° |
| 2026-05-05 11:39 | 60.22306 | 11.09591 | 2474 ft | 172 kts | 12° |
| 2026-05-05 11:39 | 60.23423 | 11.10220 | 3441 ft | 169 kts | 11° |
| 2026-05-05 11:39 | 60.24511 | 11.10836 | 4255 ft | 164 kts | 11° |
| 2026-05-05 11:40 | 60.25658 | 11.11414 | 4768 ft | 177 kts | 359° |
| 2026-05-05 11:40 | 60.26912 | 11.11152 | 5238 ft | 191 kts | 348° |
| 2026-05-05 11:40 | 60.28241 | 11.10472 | 5676 ft | 209 kts | 325° |
| 2026-05-05 11:40 | 60.29161 | 11.08085 | 6068 ft | 233 kts | 286° |
| 2026-05-05 11:41 | 60.29555 | 11.04818 | 6679 ft | 251 kts | 284° |
| 2026-05-05 11:41 | 60.29964 | 11.01323 | 7465 ft | 262 kts | 284° |
| 2026-05-05 11:41 | 60.30383 | 10.97785 | 8416 ft | 266 kts | 284° |
| 2026-05-05 11:41 | 60.30808 | 10.94224 | 9457 ft | 266 kts | 284° |
| 2026-05-05 11:42 | 60.31236 | 10.90630 | 10362 ft | 270 kts | 284° |
| 2026-05-05 11:42 | 60.31689 | 10.86833 | 11038 ft | 284 kts | 284° |
| 2026-05-05 11:42 | 60.31977 | 10.82877 | 11782 ft | 295 kts | 265° |
| 2026-05-05 11:42 | 60.31276 | 10.79001 | 12615 ft | 307 kts | 236° |
| 2026-05-05 11:43 | 60.29651 | 10.76218 | 13592 ft | 315 kts | 214° |
| 2026-05-05 11:43 | 60.27752 | 10.73948 | 14588 ft | 317 kts | 215° |
| 2026-05-05 11:43 | 60.25996 | 10.71361 | 15530 ft | 311 kts | 234° |
| 2026-05-05 11:43 | 60.24994 | 10.67585 | 16525 ft | 302 kts | 253° |
| 2026-05-05 11:44 | 60.24340 | 10.63562 | 17570 ft | 298 kts | 257° |
| 2026-05-05 11:44 | 60.23798 | 10.59573 | 18596 ft | 294 kts | 258° |
| 2026-05-05 11:44 | 60.23321 | 10.55691 | 19597 ft | 289 kts | 260° |
| 2026-05-05 11:44 | 60.22900 | 10.51774 | 20459 ft | 289 kts | 260° |
| 2026-05-05 11:45 | 60.22463 | 10.47825 | 21176 ft | 290 kts | 259° |
| 2026-05-05 11:45 | 60.22025 | 10.43932 | 21950 ft | 289 kts | 259° |
| 2026-05-05 11:45 | 60.21585 | 10.40041 | 22686 ft | 289 kts | 259° |
| 2026-05-05 11:45 | 60.21137 | 10.36102 | 23362 ft | 289 kts | 258° |
| 2026-05-05 11:46 | 60.20692 | 10.32207 | 23970 ft | 291 kts | 258° |
| 2026-05-05 11:46 | 60.20237 | 10.28248 | 24634 ft | 292 kts | 258° |
| 2026-05-05 11:46 | 60.19783 | 10.24291 | 25216 ft | 295 kts | 257° |
| 2026-05-05 11:46 | 60.19316 | 10.20249 | 25722 ft | 300 kts | 258° |
| 2026-05-05 11:47 | 60.18837 | 10.16102 | 26230 ft | 304 kts | 258° |
| 2026-05-05 11:47 | 60.18364 | 10.12017 | 26816 ft | 306 kts | 257° |
| 2026-05-05 11:47 | 60.17876 | 10.07832 | 27341 ft | 310 kts | 258° |
| 2026-05-05 11:47 | 60.17388 | 10.03649 | 27810 ft | 314 kts | 257° |
| 2026-05-05 11:48 | 60.16381 | 9.95054 | 28829 ft | 319 kts | 257° |
| 2026-05-05 11:48 | 60.15872 | 9.90737 | 29283 ft | 323 kts | 258° |
| 2026-05-05 11:48 | 60.15353 | 9.86348 | 29705 ft | 327 kts | 258° |
| 2026-05-05 11:49 | 60.14825 | 9.81940 | 30191 ft | 329 kts | 256° |
| 2026-05-05 11:49 | 60.13973 | 9.77618 | 30591 ft | 336 kts | 246° |
| 2026-05-05 11:49 | 60.12889 | 9.73492 | 31041 ft | 339 kts | 246° |
| 2026-05-05 11:49 | 60.11784 | 9.69286 | 31304 ft | 344 kts | 246° |
| 2026-05-05 11:50 | 60.10669 | 9.65045 | 31552 ft | 350 kts | 246° |
| 2026-05-05 11:50 | 60.09525 | 9.60708 | 31907 ft | 354 kts | 247° |
| 2026-05-05 11:50 | 60.08387 | 9.56396 | 32201 ft | 355 kts | 246° |
| 2026-05-05 11:50 | 60.07236 | 9.52044 | 32491 ft | 357 kts | 246° |
| 2026-05-05 11:51 | 60.06079 | 9.47678 | 32918 ft | 358 kts | 246° |
| 2026-05-05 11:51 | 60.04908 | 9.43263 | 33192 ft | 359 kts | 246° |
| 2026-05-05 11:51 | 60.03741 | 9.38876 | 33479 ft | 361 kts | 246° |
| 2026-05-05 11:51 | 60.02558 | 9.34437 | 33732 ft | 364 kts | 245° |
| 2026-05-05 11:52 | 60.01366 | 9.29972 | 34009 ft | 366 kts | 245° |
| 2026-05-05 11:52 | 60.00168 | 9.25496 | 34284 ft | 368 kts | 245° |
| 2026-05-05 11:52 | 59.98957 | 9.20979 | 34601 ft | 369 kts | 245° |
| 2026-05-05 11:52 | 59.97756 | 9.16507 | 34944 ft | 369 kts | 245° |
| 2026-05-05 11:53 | 59.96553 | 9.12037 | 35247 ft | 369 kts | 245° |
| 2026-05-05 11:53 | 59.95331 | 9.07509 | 35537 ft | 369 kts | 245° |
| 2026-05-05 11:53 | 59.94134 | 9.03079 | 35775 ft | 364 kts | 245° |
| 2026-05-05 11:53 | 59.92921 | 8.98599 | 35811 ft | 369 kts | 245° |
| 2026-05-05 11:54 | 59.90459 | 8.89532 | 35866 ft | 383 kts | 245° |
| 2026-05-05 11:54 | 59.87879 | 8.80072 | 35856 ft | 389 kts | 245° |
| 2026-05-05 11:55 | 59.85300 | 8.70655 | 35867 ft | 391 kts | 245° |
| 2026-05-05 11:55 | 59.82718 | 8.61266 | 35844 ft | 390 kts | 245° |
| 2026-05-05 11:56 | 59.80103 | 8.51795 | 35804 ft | 391 kts | 245° |
| 2026-05-05 11:56 | 59.77497 | 8.42395 | 35780 ft | 391 kts | 244° |
| 2026-05-05 11:57 | 59.74886 | 8.33016 | 35781 ft | 390 kts | 244° |
| 2026-05-05 11:57 | 59.73193 | 8.22982 | 35825 ft | 388 kts | 259° |
| 2026-05-05 11:58 | 59.72094 | 8.12521 | 35820 ft | 388 kts | 258° |
| 2026-05-05 11:58 | 59.71526 | 8.07278 | 35409 ft | 394 kts | 258° |
| 2026-05-05 11:58 | 59.70952 | 8.02022 | 35057 ft | 384 kts | 259° |
| 2026-05-05 11:59 | 59.70395 | 7.96944 | 34583 ft | 377 kts | 259° |
| 2026-05-05 11:59 | 59.69848 | 7.91969 | 34000 ft | 374 kts | 259° |
| 2026-05-05 11:59 | 59.69292 | 7.86939 | 33314 ft | 373 kts | 259° |
| 2026-05-05 11:59 | 59.68742 | 7.81972 | 32706 ft | 371 kts | 259° |
| 2026-05-05 12:00 | 59.68191 | 7.77031 | 32082 ft | 368 kts | 259° |
| 2026-05-05 12:00 | 59.67650 | 7.72186 | 31444 ft | 363 kts | 259° |
| 2026-05-05 12:00 | 59.67109 | 7.67366 | 30819 ft | 357 kts | 259° |
| 2026-05-05 12:00 | 59.66582 | 7.62674 | 30246 ft | 349 kts | 259° |
| 2026-05-05 12:01 | 59.66059 | 7.58046 | 29594 ft | 343 kts | 259° |
| 2026-05-05 12:01 | 59.65541 | 7.53475 | 28856 ft | 339 kts | 260° |
| 2026-05-05 12:01 | 59.65031 | 7.48993 | 28138 ft | 335 kts | 259° |
| 2026-05-05 12:01 | 59.64525 | 7.44548 | 27491 ft | 332 kts | 259° |
| 2026-05-05 12:02 | 59.64023 | 7.40161 | 26989 ft | 332 kts | 260° |
| 2026-05-05 12:02 | 59.63518 | 7.35766 | 26458 ft | 329 kts | 259° |
| 2026-05-05 12:02 | 59.63012 | 7.31377 | 25928 ft | 324 kts | 259° |
| 2026-05-05 12:02 | 59.62516 | 7.27079 | 25419 ft | 325 kts | 259° |
| 2026-05-05 12:03 | 59.62015 | 7.22756 | 24933 ft | 328 kts | 259° |
| 2026-05-05 12:03 | 59.61505 | 7.18367 | 24433 ft | 326 kts | 259° |
| 2026-05-05 12:03 | 59.61004 | 7.14068 | 23937 ft | 323 kts | 259° |
| 2026-05-05 12:03 | 59.60497 | 7.09738 | 23461 ft | 322 kts | 259° |
| 2026-05-05 12:04 | 59.59997 | 7.05478 | 22989 ft | 322 kts | 259° |
| 2026-05-05 12:04 | 59.59491 | 7.01174 | 22517 ft | 321 kts | 259° |
| 2026-05-05 12:04 | 59.58986 | 6.96904 | 22103 ft | 320 kts | 259° |
| 2026-05-05 12:04 | 59.58480 | 6.92630 | 21670 ft | 321 kts | 259° |
| 2026-05-05 12:05 | 59.57979 | 6.88413 | 21286 ft | 319 kts | 259° |
| 2026-05-05 12:05 | 59.57472 | 6.84155 | 20811 ft | 319 kts | 259° |
| 2026-05-05 12:05 | 59.56962 | 6.79888 | 20400 ft | 318 kts | 260° |
| 2026-05-05 12:05 | 59.56455 | 6.75657 | 19990 ft | 319 kts | 260° |
| 2026-05-05 12:06 | 59.55953 | 6.71483 | 19519 ft | 318 kts | 259° |
| 2026-05-05 12:06 | 59.55442 | 6.67267 | 19085 ft | 317 kts | 258° |
| 2026-05-05 12:06 | 59.54582 | 6.63280 | 18628 ft | 321 kts | 248° |
| 2026-05-05 12:06 | 59.53537 | 6.59407 | 18198 ft | 321 kts | 247° |
| 2026-05-05 12:07 | 59.52486 | 6.55535 | 17751 ft | 322 kts | 247° |
| 2026-05-05 12:07 | 59.51436 | 6.51677 | 17309 ft | 321 kts | 247° |
| 2026-05-05 12:07 | 59.50379 | 6.47800 | 16867 ft | 322 kts | 247° |
| 2026-05-05 12:07 | 59.49328 | 6.43953 | 16405 ft | 321 kts | 247° |
| 2026-05-05 12:08 | 59.48279 | 6.40123 | 15900 ft | 320 kts | 246° |
| 2026-05-05 12:08 | 59.47221 | 6.36264 | 15371 ft | 319 kts | 246° |
| 2026-05-05 12:08 | 59.46180 | 6.32474 | 14854 ft | 320 kts | 245° |
| 2026-05-05 12:08 | 59.45113 | 6.28595 | 14346 ft | 319 kts | 245° |
| 2026-05-05 12:09 | 59.44062 | 6.24782 | 13725 ft | 319 kts | 245° |
| 2026-05-05 12:09 | 59.43024 | 6.21021 | 13117 ft | 317 kts | 245° |
| 2026-05-05 12:09 | 59.41969 | 6.17208 | 12499 ft | 315 kts | 245° |
| 2026-05-05 12:09 | 59.40932 | 6.13463 | 11892 ft | 314 kts | 245° |
| 2026-05-05 12:10 | 59.39893 | 6.09718 | 11312 ft | 311 kts | 245° |
| 2026-05-05 12:10 | 59.38868 | 6.06028 | 10795 ft | 310 kts | 244° |
| 2026-05-05 12:10 | 59.37846 | 6.02360 | 10520 ft | 301 kts | 244° |
| 2026-05-05 12:10 | 59.36871 | 5.98865 | 10355 ft | 285 kts | 244° |
| 2026-05-05 12:11 | 59.35952 | 5.95574 | 10182 ft | 271 kts | 244° |
| 2026-05-05 12:11 | 59.35064 | 5.92398 | 9911 ft | 262 kts | 244° |
| 2026-05-05 12:11 | 59.34187 | 5.89266 | 9472 ft | 260 kts | 244° |
| 2026-05-05 12:11 | 59.33323 | 5.86180 | 8980 ft | 260 kts | 244° |
| 2026-05-05 12:12 | 59.32459 | 5.83100 | 8465 ft | 261 kts | 244° |
| 2026-05-05 12:12 | 59.31591 | 5.80013 | 7997 ft | 260 kts | 244° |
| 2026-05-05 12:12 | 59.30721 | 5.76924 | 7545 ft | 259 kts | 244° |
| 2026-05-05 12:12 | 59.29850 | 5.73835 | 7100 ft | 257 kts | 244° |
| 2026-05-05 12:13 | 59.29002 | 5.70829 | 6656 ft | 256 kts | 244° |
| 2026-05-05 12:13 | 59.28144 | 5.67795 | 6208 ft | 255 kts | 244° |
| 2026-05-05 12:13 | 59.27291 | 5.64782 | 5749 ft | 254 kts | 244° |
| 2026-05-05 12:13 | 59.26434 | 5.61759 | 5296 ft | 254 kts | 243° |
| 2026-05-05 12:14 | 59.25293 | 5.59098 | 4840 ft | 257 kts | 229° |
| 2026-05-05 12:14 | 59.24038 | 5.56677 | 4337 ft | 254 kts | 229° |
| 2026-05-05 12:14 | 59.22813 | 5.54319 | 3778 ft | 246 kts | 229° |
| 2026-05-05 12:14 | 59.21684 | 5.51920 | 3226 ft | 236 kts | 246° |
| 2026-05-05 12:15 | 59.21457 | 5.48996 | 3016 ft | 205 kts | 290° |
| 2026-05-05 12:15 | 59.22087 | 5.46749 | 3017 ft | 183 kts | 307° |
| 2026-05-05 12:15 | 59.22869 | 5.44773 | 2749 ft | 182 kts | 310° |
| 2026-05-05 12:15 | 59.23655 | 5.42963 | 2645 ft | 170 kts | 312° |
| 2026-05-05 12:16 | 59.24426 | 5.41281 | 2426 ft | 165 kts | 313° |
| 2026-05-05 12:16 | 59.25183 | 5.39682 | 2311 ft | 153 kts | 314° |
| 2026-05-05 12:16 | 59.25902 | 5.38196 | 2171 ft | 151 kts | 314° |
| 2026-05-05 12:16 | 59.26604 | 5.36761 | 2081 ft | 145 kts | 315° |
| 2026-05-05 12:17 | 59.27307 | 5.35340 | 1925 ft | 142 kts | 314° |
| 2026-05-05 12:17 | 59.27964 | 5.34014 | 1678 ft | 134 kts | 314° |
| 2026-05-05 12:17 | 59.28604 | 5.32730 | 1457 ft | 129 kts | 314° |
| 2026-05-05 12:17 | 59.29223 | 5.31489 | 1276 ft | 129 kts | 314° |
| 2026-05-05 12:18 | 59.29857 | 5.30220 | 1121 ft | 130 kts | 313° |
| 2026-05-05 12:18 | 59.30488 | 5.28957 | 979 ft | 130 kts | 313° |
| 2026-05-05 12:18 | 59.31121 | 5.27689 | 843 ft | 131 kts | 312° |
| 2026-05-05 12:18 | 59.31762 | 5.26408 | 708 ft | 132 kts | 314° |
| 2026-05-05 12:19 | 59.32398 | 5.25134 | 520 ft | 132 kts | 314° |
| 2026-05-05 12:19 | 59.33040 | 5.23819 | 352 ft | 133 kts | 313° |
| 2026-05-05 12:19 | 59.33693 | 5.22517 | 165 ft | 136 kts | 311° |
| 2026-05-05 12:19 | 59.34340 | 5.21215 | 71 ft | 122 kts | 313° |
| 2026-05-05 12:20 | 59.34786 | 5.20322 | 62 ft | 62 kts | 314° |
| 2026-05-05 12:20 | 59.34951 | 5.19986 | 54 ft | 6 kts | 314° |
| 2026-05-05 12:20 | 59.34986 | 5.19916 | 53 ft | 8 kts | 315° |
| 2026-05-05 12:20 | 59.35033 | 5.19815 | 51 ft | 9 kts | 295° |
| 2026-05-05 12:21 | 59.35061 | 5.19775 | 50 ft | 5 kts | 42° |
| 2026-05-05 12:21 | 59.35041 | 5.19820 | 51 ft | 7 kts | 153° |
| 2026-05-05 12:21 | 59.34989 | 5.19911 | 53 ft | 12 kts | 134° |
| 2026-05-05 12:21 | 59.34915 | 5.20060 | 56 ft | 17 kts | 134° |
| 2026-05-05 12:22 | 59.34817 | 5.20256 | 60 ft | 22 kts | 135° |
| 2026-05-05 12:22 | 59.34701 | 5.20488 | 68 ft | 24 kts | 134° |
| 2026-05-05 12:22 | 59.34584 | 5.20724 | 73 ft | 23 kts | 134° |
| 2026-05-05 12:22 | 59.34469 | 5.20953 | 75 ft | 23 kts | 134° |
| 2026-05-05 12:23 | 59.34359 | 5.21174 | 72 ft | 14 kts | 133° |
| 2026-05-05 12:23 | 59.34345 | 5.21299 | 71 ft | 10 kts | 47° |
| 2026-05-05 12:23 | 59.34399 | 5.21403 | 71 ft | 11 kts | 44° |
| 2026-05-05 12:23 | 59.34399 | 5.21500 | 70 ft | 8 kts | 129° |
| 2026-05-05 12:24 | 59.34406 | 5.21575 | 70 ft | 6 kts | 45° |
| 2026-05-05 12:24 | 59.34421 | 5.21604 | 69 ft | 0 kts | 44° |